sensor_id;sensor_type;location;lat;lon;timestamp;P1;durP1;ratioP1;P2;durP2;ratioP2
34072;SDS011;20346;52.702;16.886;2023-09-19T00:00:17;4.70;;;4.10;;
34072;SDS011;20346;52.702;16.886;2023-09-19T00:03:04;4.50;;;4.20;;
34072;SDS011;20346;52.702;16.886;2023-09-19T00:05:51;4.90;;;4.50;;
34072;SDS011;20346;52.702;16.886;2023-09-19T00:08:38;5.40;;;4.10;;
34072;SDS011;20346;52.702;16.886;2023-09-19T00:11:25;9.00;;;4.90;;
34072;SDS011;20346;52.702;16.886;2023-09-19T00:14:12;6.20;;;4.40;;
34072;SDS011;20346;52.702;16.886;2023-09-19T00:17:00;6.40;;;3.90;;
34072;SDS011;20346;52.702;16.886;2023-09-19T00:19:46;5.60;;;4.60;;
34072;SDS011;20346;52.702;16.886;2023-09-19T00:22:40;5.70;;;4.30;;
34072;SDS011;20346;52.702;16.886;2023-09-19T00:25:29;7.20;;;4.60;;
34072;SDS011;20346;52.702;16.886;2023-09-19T00:28:18;6.10;;;4.40;;
34072;SDS011;20346;52.702;16.886;2023-09-19T00:31:07;8.50;;;4.90;;
34072;SDS011;20346;52.702;16.886;2023-09-19T00:33:54;5.30;;;3.90;;
34072;SDS011;20346;52.702;16.886;2023-09-19T00:36:42;8.10;;;4.50;;
34072;SDS011;20346;52.702;16.886;2023-09-19T00:39:29;6.70;;;4.50;;
34072;SDS011;20346;52.702;16.886;2023-09-19T00:42:18;4.80;;;4.30;;
34072;SDS011;20346;52.702;16.886;2023-09-19T00:45:08;5.70;;;4.30;;
34072;SDS011;20346;52.702;16.886;2023-09-19T00:47:59;8.30;;;4.30;;
34072;SDS011;20346;52.702;16.886;2023-09-19T00:50:49;6.60;;;4.60;;
34072;SDS011;20346;52.702;16.886;2023-09-19T00:53:36;6.90;;;4.70;;
34072;SDS011;20346;52.702;16.886;2023-09-19T00:56:25;9.90;;;4.40;;
34072;SDS011;20346;52.702;16.886;2023-09-19T00:59:11;4.40;;;4.00;;
34072;SDS011;20346;52.702;16.886;2023-09-19T01:01:58;5.60;;;3.80;;
34072;SDS011;20346;52.702;16.886;2023-09-19T01:04:45;4.40;;;3.40;;
34072;SDS011;20346;52.702;16.886;2023-09-19T01:07:32;5.10;;;3.60;;
34072;SDS011;20346;52.702;16.886;2023-09-19T01:10:21;6.80;;;3.60;;
34072;SDS011;20346;52.702;16.886;2023-09-19T01:16:19;3.80;;;3.10;;
34072;SDS011;20346;52.702;16.886;2023-09-19T01:29:12;7.70;;;3.70;;
34072;SDS011;20346;52.702;16.886;2023-09-19T01:32:21;5.80;;;3.40;;
34072;SDS011;20346;52.702;16.886;2023-09-19T01:35:10;5.00;;;3.60;;
34072;SDS011;20346;52.702;16.886;2023-09-19T01:37:59;6.20;;;3.20;;
34072;SDS011;20346;52.702;16.886;2023-09-19T01:40:48;8.20;;;3.50;;
34072;SDS011;20346;52.702;16.886;2023-09-19T01:43:49;6.00;;;3.60;;
34072;SDS011;20346;52.702;16.886;2023-09-19T01:46:38;4.20;;;3.50;;
34072;SDS011;20346;52.702;16.886;2023-09-19T01:52:59;5.00;;;3.30;;
34072;SDS011;20346;52.702;16.886;2023-09-19T01:55:50;4.90;;;3.10;;
34072;SDS011;20346;52.702;16.886;2023-09-19T01:58:43;4.30;;;2.80;;
34072;SDS011;20346;52.702;16.886;2023-09-19T02:01:34;6.80;;;3.30;;
34072;SDS011;20346;52.702;16.886;2023-09-19T02:04:22;6.30;;;3.50;;
34072;SDS011;20346;52.702;16.886;2023-09-19T02:07:08;3.40;;;2.70;;
34072;SDS011;20346;52.702;16.886;2023-09-19T02:09:55;6.50;;;3.30;;
34072;SDS011;20346;52.702;16.886;2023-09-19T02:12:41;4.40;;;2.90;;
34072;SDS011;20346;52.702;16.886;2023-09-19T02:15:27;5.90;;;4.20;;
34072;SDS011;20346;52.702;16.886;2023-09-19T02:18:13;4.70;;;3.10;;
34072;SDS011;20346;52.702;16.886;2023-09-19T02:21:02;4.50;;;3.60;;
34072;SDS011;20346;52.702;16.886;2023-09-19T02:23:50;5.70;;;4.10;;
34072;SDS011;20346;52.702;16.886;2023-09-19T02:26:37;5.20;;;4.40;;
34072;SDS011;20346;52.702;16.886;2023-09-19T02:29:23;4.90;;;4.50;;
34072;SDS011;20346;52.702;16.886;2023-09-19T02:32:10;4.80;;;4.30;;
34072;SDS011;20346;52.702;16.886;2023-09-19T02:34:57;4.70;;;4.30;;
34072;SDS011;20346;52.702;16.886;2023-09-19T02:37:46;4.90;;;4.10;;
34072;SDS011;20346;52.702;16.886;2023-09-19T02:40:33;5.30;;;4.00;;
34072;SDS011;20346;52.702;16.886;2023-09-19T02:43:21;6.60;;;4.40;;
34072;SDS011;20346;52.702;16.886;2023-09-19T02:46:08;4.90;;;4.20;;
34072;SDS011;20346;52.702;16.886;2023-09-19T02:48:55;5.50;;;4.10;;
34072;SDS011;20346;52.702;16.886;2023-09-19T02:51:41;9.10;;;3.60;;
34072;SDS011;20346;52.702;16.886;2023-09-19T02:54:27;4.20;;;3.20;;
34072;SDS011;20346;52.702;16.886;2023-09-19T03:00:03;4.50;;;3.30;;
34072;SDS011;20346;52.702;16.886;2023-09-19T03:02:54;6.80;;;3.40;;
34072;SDS011;20346;52.702;16.886;2023-09-19T03:05:41;4.80;;;3.00;;
34072;SDS011;20346;52.702;16.886;2023-09-19T03:08:32;8.50;;;3.20;;
34072;SDS011;20346;52.702;16.886;2023-09-19T03:11:22;4.90;;;2.80;;
34072;SDS011;20346;52.702;16.886;2023-09-19T03:14:08;5.60;;;3.30;;
34072;SDS011;20346;52.702;16.886;2023-09-19T03:16:55;7.80;;;2.80;;
34072;SDS011;20346;52.702;16.886;2023-09-19T03:19:41;8.20;;;2.60;;
34072;SDS011;20346;52.702;16.886;2023-09-19T03:22:28;3.80;;;2.90;;
34072;SDS011;20346;52.702;16.886;2023-09-19T03:25:14;3.60;;;2.60;;
34072;SDS011;20346;52.702;16.886;2023-09-19T03:31:04;4.50;;;2.60;;
34072;SDS011;20346;52.702;16.886;2023-09-19T03:33:52;5.80;;;2.20;;
34072;SDS011;20346;52.702;16.886;2023-09-19T03:36:38;5.10;;;2.30;;
34072;SDS011;20346;52.702;16.886;2023-09-19T03:39:26;2.80;;;2.10;;
34072;SDS011;20346;52.702;16.886;2023-09-19T03:42:12;6.90;;;2.90;;
34072;SDS011;20346;52.702;16.886;2023-09-19T03:44:58;2.50;;;2.30;;
34072;SDS011;20346;52.702;16.886;2023-09-19T03:47:50;3.00;;;1.90;;
34072;SDS011;20346;52.702;16.886;2023-09-19T03:50:36;3.50;;;2.30;;
34072;SDS011;20346;52.702;16.886;2023-09-19T03:56:08;4.00;;;2.70;;
34072;SDS011;20346;52.702;16.886;2023-09-19T03:58:55;5.30;;;3.10;;
34072;SDS011;20346;52.702;16.886;2023-09-19T04:01:41;3.80;;;2.60;;
34072;SDS011;20346;52.702;16.886;2023-09-19T04:04:27;3.50;;;2.90;;
34072;SDS011;20346;52.702;16.886;2023-09-19T04:07:15;3.30;;;3.00;;
34072;SDS011;20346;52.702;16.886;2023-09-19T04:10:02;5.40;;;3.80;;
34072;SDS011;20346;52.702;16.886;2023-09-19T04:12:52;5.80;;;4.50;;
34072;SDS011;20346;52.702;16.886;2023-09-19T04:15:39;6.70;;;4.90;;
34072;SDS011;20346;52.702;16.886;2023-09-19T04:18:26;5.00;;;4.20;;
34072;SDS011;20346;52.702;16.886;2023-09-19T04:21:13;4.90;;;4.50;;
34072;SDS011;20346;52.702;16.886;2023-09-19T04:23:59;6.00;;;5.50;;
34072;SDS011;20346;52.702;16.886;2023-09-19T04:26:45;7.30;;;5.30;;
34072;SDS011;20346;52.702;16.886;2023-09-19T04:29:32;4.50;;;4.00;;
34072;SDS011;20346;52.702;16.886;2023-09-19T04:35:08;5.40;;;3.40;;
34072;SDS011;20346;52.702;16.886;2023-09-19T04:37:56;3.60;;;3.00;;
34072;SDS011;20346;52.702;16.886;2023-09-19T04:40:42;3.10;;;2.80;;
34072;SDS011;20346;52.702;16.886;2023-09-19T04:43:29;5.50;;;3.20;;
34072;SDS011;20346;52.702;16.886;2023-09-19T04:46:16;4.70;;;3.30;;
34072;SDS011;20346;52.702;16.886;2023-09-19T04:49:03;5.90;;;3.00;;
34072;SDS011;20346;52.702;16.886;2023-09-19T04:51:49;3.50;;;3.20;;
34072;SDS011;20346;52.702;16.886;2023-09-19T04:54:36;5.90;;;3.80;;
34072;SDS011;20346;52.702;16.886;2023-09-19T04:57:22;5.00;;;3.70;;
34072;SDS011;20346;52.702;16.886;2023-09-19T05:00:09;5.10;;;3.30;;
34072;SDS011;20346;52.702;16.886;2023-09-19T05:02:58;3.80;;;3.50;;
34072;SDS011;20346;52.702;16.886;2023-09-19T05:05:44;5.80;;;3.60;;
34072;SDS011;20346;52.702;16.886;2023-09-19T05:08:30;8.40;;;3.80;;
34072;SDS011;20346;52.702;16.886;2023-09-19T05:11:17;4.70;;;4.10;;
34072;SDS011;20346;52.702;16.886;2023-09-19T05:14:10;4.80;;;3.50;;
34072;SDS011;20346;52.702;16.886;2023-09-19T05:16:57;6.10;;;4.00;;
34072;SDS011;20346;52.702;16.886;2023-09-19T05:19:43;5.50;;;4.20;;
34072;SDS011;20346;52.702;16.886;2023-09-19T05:22:29;6.60;;;3.90;;
34072;SDS011;20346;52.702;16.886;2023-09-19T05:25:17;8.30;;;3.90;;
34072;SDS011;20346;52.702;16.886;2023-09-19T05:28:05;4.10;;;3.70;;
34072;SDS011;20346;52.702;16.886;2023-09-19T05:30:56;5.00;;;3.80;;
34072;SDS011;20346;52.702;16.886;2023-09-19T05:33:42;8.40;;;4.00;;
34072;SDS011;20346;52.702;16.886;2023-09-19T05:36:28;4.10;;;3.70;;
34072;SDS011;20346;52.702;16.886;2023-09-19T05:39:15;5.20;;;3.50;;
34072;SDS011;20346;52.702;16.886;2023-09-19T05:42:02;6.50;;;3.40;;
34072;SDS011;20346;52.702;16.886;2023-09-19T05:44:49;3.90;;;3.60;;
34072;SDS011;20346;52.702;16.886;2023-09-19T05:47:35;6.10;;;3.40;;
34072;SDS011;20346;52.702;16.886;2023-09-19T05:50:21;6.80;;;3.30;;
34072;SDS011;20346;52.702;16.886;2023-09-19T05:53:09;5.00;;;3.00;;
34072;SDS011;20346;52.702;16.886;2023-09-19T05:56:00;6.70;;;3.50;;
34072;SDS011;20346;52.702;16.886;2023-09-19T05:58:46;3.10;;;2.80;;
34072;SDS011;20346;52.702;16.886;2023-09-19T06:01:32;2.30;;;2.20;;
34072;SDS011;20346;52.702;16.886;2023-09-19T06:04:20;4.30;;;3.40;;
34072;SDS011;20346;52.702;16.886;2023-09-19T06:07:07;4.70;;;2.80;;
34072;SDS011;20346;52.702;16.886;2023-09-19T06:09:53;9.10;;;3.10;;
34072;SDS011;20346;52.702;16.886;2023-09-19T06:12:40;5.70;;;3.20;;
34072;SDS011;20346;52.702;16.886;2023-09-19T06:15:26;3.90;;;3.00;;
34072;SDS011;20346;52.702;16.886;2023-09-19T06:18:12;4.40;;;2.60;;
34072;SDS011;20346;52.702;16.886;2023-09-19T06:21:05;5.90;;;2.50;;
34072;SDS011;20346;52.702;16.886;2023-09-19T06:23:53;4.30;;;2.50;;
34072;SDS011;20346;52.702;16.886;2023-09-19T06:26:39;3.20;;;2.90;;
34072;SDS011;20346;52.702;16.886;2023-09-19T06:29:25;5.40;;;2.90;;
34072;SDS011;20346;52.702;16.886;2023-09-19T06:32:12;5.10;;;3.20;;
34072;SDS011;20346;52.702;16.886;2023-09-19T06:34:58;5.40;;;3.40;;
34072;SDS011;20346;52.702;16.886;2023-09-19T06:37:44;2.80;;;2.50;;
34072;SDS011;20346;52.702;16.886;2023-09-19T06:40:30;4.90;;;2.60;;
34072;SDS011;20346;52.702;16.886;2023-09-19T06:43:16;5.40;;;3.00;;
34072;SDS011;20346;52.702;16.886;2023-09-19T06:46:02;8.30;;;3.00;;
34072;SDS011;20346;52.702;16.886;2023-09-19T06:48:49;9.20;;;3.20;;
34072;SDS011;20346;52.702;16.886;2023-09-19T06:51:37;5.50;;;2.60;;
34072;SDS011;20346;52.702;16.886;2023-09-19T06:54:23;3.80;;;2.90;;
34072;SDS011;20346;52.702;16.886;2023-09-19T06:57:09;5.70;;;3.10;;
34072;SDS011;20346;52.702;16.886;2023-09-19T06:59:55;4.00;;;2.80;;
34072;SDS011;20346;52.702;16.886;2023-09-19T07:02:41;6.40;;;2.80;;
34072;SDS011;20346;52.702;16.886;2023-09-19T07:05:28;3.90;;;2.60;;
34072;SDS011;20346;52.702;16.886;2023-09-19T07:08:14;3.60;;;3.10;;
34072;SDS011;20346;52.702;16.886;2023-09-19T07:11:01;3.60;;;2.90;;
34072;SDS011;20346;52.702;16.886;2023-09-19T07:13:47;4.80;;;3.00;;
34072;SDS011;20346;52.702;16.886;2023-09-19T07:16:33;5.60;;;3.00;;
34072;SDS011;20346;52.702;16.886;2023-09-19T07:19:20;5.00;;;2.40;;
34072;SDS011;20346;52.702;16.886;2023-09-19T07:22:06;10.30;;;2.90;;
34072;SDS011;20346;52.702;16.886;2023-09-19T07:24:53;5.90;;;3.10;;
34072;SDS011;20346;52.702;16.886;2023-09-19T07:27:41;3.40;;;2.90;;
34072;SDS011;20346;52.702;16.886;2023-09-19T07:33:13;3.80;;;2.20;;
34072;SDS011;20346;52.702;16.886;2023-09-19T07:35:59;2.60;;;2.30;;
34072;SDS011;20346;52.702;16.886;2023-09-19T07:38:45;4.00;;;2.70;;
34072;SDS011;20346;52.702;16.886;2023-09-19T07:41:31;9.80;;;3.90;;
34072;SDS011;20346;52.702;16.886;2023-09-19T07:44:17;5.80;;;3.60;;
34072;SDS011;20346;52.702;16.886;2023-09-19T07:47:04;10.00;;;4.00;;
34072;SDS011;20346;52.702;16.886;2023-09-19T07:49:50;8.80;;;4.00;;
34072;SDS011;20346;52.702;16.886;2023-09-19T07:52:36;10.70;;;3.60;;
34072;SDS011;20346;52.702;16.886;2023-09-19T07:55:24;4.10;;;2.20;;
34072;SDS011;20346;52.702;16.886;2023-09-19T07:58:11;4.30;;;2.20;;
34072;SDS011;20346;52.702;16.886;2023-09-19T08:01:05;2.80;;;1.90;;
34072;SDS011;20346;52.702;16.886;2023-09-19T08:03:52;4.60;;;2.10;;
34072;SDS011;20346;52.702;16.886;2023-09-19T08:06:38;2.70;;;1.80;;
34072;SDS011;20346;52.702;16.886;2023-09-19T08:12:10;4.70;;;1.90;;
34072;SDS011;20346;52.702;16.886;2023-09-19T08:14:57;3.40;;;1.60;;
34072;SDS011;20346;52.702;16.886;2023-09-19T08:17:43;3.40;;;1.60;;
34072;SDS011;20346;52.702;16.886;2023-09-19T08:20:29;1.70;;;1.50;;
34072;SDS011;20346;52.702;16.886;2023-09-19T08:23:15;2.60;;;1.60;;
34072;SDS011;20346;52.702;16.886;2023-09-19T08:26:02;2.30;;;1.60;;
34072;SDS011;20346;52.702;16.886;2023-09-19T08:28:52;2.60;;;1.80;;
34072;SDS011;20346;52.702;16.886;2023-09-19T08:31:38;3.20;;;2.20;;
34072;SDS011;20346;52.702;16.886;2023-09-19T08:34:25;5.90;;;1.60;;
34072;SDS011;20346;52.702;16.886;2023-09-19T08:37:11;3.20;;;1.30;;
34072;SDS011;20346;52.702;16.886;2023-09-19T08:39:57;3.20;;;1.60;;
34072;SDS011;20346;52.702;16.886;2023-09-19T08:42:53;3.00;;;1.50;;
34072;SDS011;20346;52.702;16.886;2023-09-19T08:45:40;3.20;;;1.20;;
34072;SDS011;20346;52.702;16.886;2023-09-19T08:48:26;2.90;;;1.10;;
34072;SDS011;20346;52.702;16.886;2023-09-19T08:51:26;1.70;;;1.40;;
34072;SDS011;20346;52.702;16.886;2023-09-19T08:54:22;3.20;;;1.50;;
34072;SDS011;20346;52.702;16.886;2023-09-19T08:57:14;3.00;;;1.80;;
34072;SDS011;20346;52.702;16.886;2023-09-19T09:00:07;3.50;;;1.80;;
34072;SDS011;20346;52.702;16.886;2023-09-19T09:02:56;2.00;;;1.20;;
34072;SDS011;20346;52.702;16.886;2023-09-19T09:05:43;2.90;;;1.30;;
34072;SDS011;20346;52.702;16.886;2023-09-19T09:08:32;3.40;;;1.40;;
34072;SDS011;20346;52.702;16.886;2023-09-19T09:11:19;2.20;;;1.60;;
34072;SDS011;20346;52.702;16.886;2023-09-19T09:14:06;3.80;;;1.60;;
